sensor_id;sensor_type;location;lat;lon;timestamp;P1;durP1;ratioP1;P2;durP2;ratioP2
10059;SDS011;5069;49.306;8.636;2022-12-10T00:01:11;17.13;;;12.63;;
10059;SDS011;5069;49.306;8.636;2022-12-10T00:04:18;17.07;;;13.17;;
10059;SDS011;5069;49.306;8.636;2022-12-10T00:07:20;18.53;;;12.40;;
10059;SDS011;5069;49.306;8.636;2022-12-10T00:10:21;16.47;;;12.70;;
10059;SDS011;5069;49.306;8.636;2022-12-10T00:13:23;18.43;;;13.27;;
10059;SDS011;5069;49.306;8.636;2022-12-10T00:16:25;18.60;;;13.43;;
10059;SDS011;5069;49.306;8.636;2022-12-10T00:19:28;18.23;;;12.53;;
10059;SDS011;5069;49.306;8.636;2022-12-10T00:22:29;19.60;;;12.77;;
10059;SDS011;5069;49.306;8.636;2022-12-10T00:25:31;19.73;;;13.87;;
10059;SDS011;5069;49.306;8.636;2022-12-10T00:28:33;19.43;;;14.30;;
10059;SDS011;5069;49.306;8.636;2022-12-10T00:31:35;18.27;;;13.30;;
10059;SDS011;5069;49.306;8.636;2022-12-10T00:34:38;20.77;;;13.97;;
10059;SDS011;5069;49.306;8.636;2022-12-10T00:37:39;20.53;;;14.00;;
10059;SDS011;5069;49.306;8.636;2022-12-10T00:40:40;20.53;;;14.40;;
10059;SDS011;5069;49.306;8.636;2022-12-10T00:43:42;19.23;;;13.30;;
10059;SDS011;5069;49.306;8.636;2022-12-10T00:46:44;18.93;;;13.90;;
10059;SDS011;5069;49.306;8.636;2022-12-10T00:49:46;19.00;;;13.53;;
10059;SDS011;5069;49.306;8.636;2022-12-10T00:52:47;18.60;;;13.07;;
10059;SDS011;5069;49.306;8.636;2022-12-10T00:55:48;19.27;;;13.60;;
10059;SDS011;5069;49.306;8.636;2022-12-10T00:58:50;19.83;;;13.20;;
10059;SDS011;5069;49.306;8.636;2022-12-10T01:01:52;20.40;;;14.70;;
10059;SDS011;5069;49.306;8.636;2022-12-10T01:04:54;19.57;;;14.10;;
10059;SDS011;5069;49.306;8.636;2022-12-10T01:07:55;18.17;;;12.60;;
10059;SDS011;5069;49.306;8.636;2022-12-10T01:10:57;21.03;;;13.77;;
10059;SDS011;5069;49.306;8.636;2022-12-10T01:14:00;20.67;;;14.30;;
10059;SDS011;5069;49.306;8.636;2022-12-10T01:17:03;20.83;;;13.83;;
10059;SDS011;5069;49.306;8.636;2022-12-10T01:20:06;20.30;;;13.37;;
10059;SDS011;5069;49.306;8.636;2022-12-10T01:23:08;18.50;;;13.43;;
10059;SDS011;5069;49.306;8.636;2022-12-10T01:26:11;19.43;;;13.23;;
10059;SDS011;5069;49.306;8.636;2022-12-10T01:29:20;19.63;;;12.80;;
10059;SDS011;5069;49.306;8.636;2022-12-10T01:32:22;19.37;;;13.43;;
10059;SDS011;5069;49.306;8.636;2022-12-10T01:35:23;18.17;;;13.53;;
10059;SDS011;5069;49.306;8.636;2022-12-10T01:38:25;19.10;;;13.53;;
10059;SDS011;5069;49.306;8.636;2022-12-10T01:41:32;18.07;;;13.37;;
10059;SDS011;5069;49.306;8.636;2022-12-10T01:44:59;18.47;;;13.50;;
10059;SDS011;5069;49.306;8.636;2022-12-10T01:48:01;20.13;;;12.90;;
10059;SDS011;5069;49.306;8.636;2022-12-10T01:51:08;17.63;;;12.67;;
10059;SDS011;5069;49.306;8.636;2022-12-10T01:54:13;19.73;;;13.33;;
10059;SDS011;5069;49.306;8.636;2022-12-10T01:57:18;18.13;;;12.47;;
10059;SDS011;5069;49.306;8.636;2022-12-10T02:00:22;19.53;;;13.50;;
10059;SDS011;5069;49.306;8.636;2022-12-10T02:06:56;19.90;;;13.03;;
10059;SDS011;5069;49.306;8.636;2022-12-10T02:13:11;18.43;;;13.67;;
10059;SDS011;5069;49.306;8.636;2022-12-10T02:16:26;18.03;;;12.77;;
10059;SDS011;5069;49.306;8.636;2022-12-10T02:19:38;17.63;;;12.90;;
10059;SDS011;5069;49.306;8.636;2022-12-10T02:22:55;17.73;;;12.83;;
10059;SDS011;5069;49.306;8.636;2022-12-10T02:26:22;17.80;;;13.03;;
10059;SDS011;5069;49.306;8.636;2022-12-10T02:29:28;18.10;;;12.73;;
10059;SDS011;5069;49.306;8.636;2022-12-10T02:32:33;21.70;;;14.77;;
10059;SDS011;5069;49.306;8.636;2022-12-10T02:35:38;18.17;;;13.00;;
10059;SDS011;5069;49.306;8.636;2022-12-10T02:38:43;18.53;;;13.37;;
10059;SDS011;5069;49.306;8.636;2022-12-10T02:41:53;21.97;;;14.00;;
10059;SDS011;5069;49.306;8.636;2022-12-10T02:44:56;19.30;;;13.53;;
10059;SDS011;5069;49.306;8.636;2022-12-10T02:48:00;18.77;;;13.83;;
10059;SDS011;5069;49.306;8.636;2022-12-10T02:51:11;19.03;;;12.90;;
10059;SDS011;5069;49.306;8.636;2022-12-10T02:54:33;20.43;;;13.27;;
10059;SDS011;5069;49.306;8.636;2022-12-10T03:01:04;22.30;;;14.30;;
10059;SDS011;5069;49.306;8.636;2022-12-10T03:04:22;19.23;;;13.30;;
10059;SDS011;5069;49.306;8.636;2022-12-10T03:07:49;21.50;;;13.77;;
10059;SDS011;5069;49.306;8.636;2022-12-10T03:14:03;18.17;;;13.80;;
10059;SDS011;5069;49.306;8.636;2022-12-10T03:17:06;19.47;;;13.50;;
10059;SDS011;5069;49.306;8.636;2022-12-10T03:20:08;19.63;;;13.77;;
10059;SDS011;5069;49.306;8.636;2022-12-10T03:23:15;18.77;;;13.60;;
10059;SDS011;5069;49.306;8.636;2022-12-10T03:26:18;19.97;;;13.43;;
10059;SDS011;5069;49.306;8.636;2022-12-10T03:29:22;19.63;;;13.60;;
10059;SDS011;5069;49.306;8.636;2022-12-10T03:32:30;19.17;;;13.73;;
10059;SDS011;5069;49.306;8.636;2022-12-10T03:35:31;23.40;;;14.57;;
10059;SDS011;5069;49.306;8.636;2022-12-10T03:38:34;19.73;;;13.80;;
10059;SDS011;5069;49.306;8.636;2022-12-10T03:41:37;22.73;;;14.83;;
10059;SDS011;5069;49.306;8.636;2022-12-10T03:44:39;21.50;;;14.20;;
10059;SDS011;5069;49.306;8.636;2022-12-10T03:47:44;22.23;;;14.77;;
10059;SDS011;5069;49.306;8.636;2022-12-10T03:50:45;23.53;;;15.27;;
10059;SDS011;5069;49.306;8.636;2022-12-10T03:53:47;23.03;;;14.77;;
10059;SDS011;5069;49.306;8.636;2022-12-10T03:56:52;21.23;;;15.03;;
10059;SDS011;5069;49.306;8.636;2022-12-10T03:59:53;21.23;;;14.37;;
10059;SDS011;5069;49.306;8.636;2022-12-10T04:02:54;22.03;;;14.00;;
10059;SDS011;5069;49.306;8.636;2022-12-10T04:06:03;22.60;;;15.23;;
10059;SDS011;5069;49.306;8.636;2022-12-10T04:09:08;21.40;;;14.63;;
10059;SDS011;5069;49.306;8.636;2022-12-10T04:12:11;25.40;;;16.27;;
10059;SDS011;5069;49.306;8.636;2022-12-10T04:15:13;24.20;;;14.73;;
10059;SDS011;5069;49.306;8.636;2022-12-10T04:18:33;25.30;;;15.93;;
10059;SDS011;5069;49.306;8.636;2022-12-10T04:21:35;22.67;;;14.87;;
10059;SDS011;5069;49.306;8.636;2022-12-10T04:24:56;24.63;;;14.93;;
10059;SDS011;5069;49.306;8.636;2022-12-10T04:28:29;21.37;;;13.80;;
10059;SDS011;5069;49.306;8.636;2022-12-10T04:31:31;23.57;;;14.80;;
10059;SDS011;5069;49.306;8.636;2022-12-10T04:34:32;22.00;;;15.30;;
10059;SDS011;5069;49.306;8.636;2022-12-10T04:37:33;22.20;;;14.80;;
10059;SDS011;5069;49.306;8.636;2022-12-10T04:40:35;22.73;;;15.73;;
10059;SDS011;5069;49.306;8.636;2022-12-10T04:43:37;23.37;;;15.57;;
10059;SDS011;5069;49.306;8.636;2022-12-10T04:46:38;24.03;;;15.97;;
10059;SDS011;5069;49.306;8.636;2022-12-10T04:49:40;23.63;;;15.43;;
10059;SDS011;5069;49.306;8.636;2022-12-10T04:52:42;24.80;;;15.50;;
10059;SDS011;5069;49.306;8.636;2022-12-10T04:55:43;25.53;;;15.37;;
10059;SDS011;5069;49.306;8.636;2022-12-10T04:58:45;20.87;;;15.17;;
10059;SDS011;5069;49.306;8.636;2022-12-10T05:01:46;24.40;;;16.23;;
10059;SDS011;5069;49.306;8.636;2022-12-10T05:04:48;25.77;;;16.57;;
10059;SDS011;5069;49.306;8.636;2022-12-10T05:07:50;22.80;;;15.33;;
10059;SDS011;5069;49.306;8.636;2022-12-10T05:10:51;26.07;;;15.40;;
10059;SDS011;5069;49.306;8.636;2022-12-10T05:13:53;21.17;;;14.77;;
10059;SDS011;5069;49.306;8.636;2022-12-10T05:16:57;21.53;;;14.90;;
10059;SDS011;5069;49.306;8.636;2022-12-10T05:19:58;24.07;;;15.47;;
10059;SDS011;5069;49.306;8.636;2022-12-10T05:22:59;23.80;;;15.63;;
10059;SDS011;5069;49.306;8.636;2022-12-10T05:26:20;22.47;;;15.17;;
10059;SDS011;5069;49.306;8.636;2022-12-10T05:29:23;22.70;;;15.60;;
10059;SDS011;5069;49.306;8.636;2022-12-10T05:32:25;23.10;;;15.10;;
10059;SDS011;5069;49.306;8.636;2022-12-10T05:35:27;21.67;;;15.17;;
10059;SDS011;5069;49.306;8.636;2022-12-10T05:38:30;24.47;;;15.37;;
10059;SDS011;5069;49.306;8.636;2022-12-10T05:41:36;23.50;;;15.30;;
10059;SDS011;5069;49.306;8.636;2022-12-10T05:44:39;23.07;;;16.17;;
10059;SDS011;5069;49.306;8.636;2022-12-10T05:47:41;27.60;;;16.17;;
10059;SDS011;5069;49.306;8.636;2022-12-10T05:50:42;27.00;;;16.90;;
10059;SDS011;5069;49.306;8.636;2022-12-10T05:53:44;24.57;;;16.47;;
10059;SDS011;5069;49.306;8.636;2022-12-10T05:56:46;23.43;;;15.83;;
10059;SDS011;5069;49.306;8.636;2022-12-10T05:59:47;24.53;;;15.47;;
10059;SDS011;5069;49.306;8.636;2022-12-10T06:02:49;22.83;;;15.10;;
10059;SDS011;5069;49.306;8.636;2022-12-10T06:05:51;22.40;;;15.20;;
10059;SDS011;5069;49.306;8.636;2022-12-10T06:08:52;23.10;;;16.07;;
10059;SDS011;5069;49.306;8.636;2022-12-10T06:11:55;25.43;;;16.07;;
10059;SDS011;5069;49.306;8.636;2022-12-10T06:14:56;25.67;;;16.50;;
10059;SDS011;5069;49.306;8.636;2022-12-10T06:17:58;23.40;;;16.23;;
10059;SDS011;5069;49.306;8.636;2022-12-10T06:21:11;24.07;;;16.67;;
10059;SDS011;5069;49.306;8.636;2022-12-10T06:24:15;23.83;;;15.90;;
10059;SDS011;5069;49.306;8.636;2022-12-10T06:27:16;24.40;;;16.23;;
10059;SDS011;5069;49.306;8.636;2022-12-10T06:30:18;25.07;;;16.77;;
10059;SDS011;5069;49.306;8.636;2022-12-10T06:33:19;26.53;;;16.33;;
10059;SDS011;5069;49.306;8.636;2022-12-10T06:36:20;26.20;;;16.53;;
10059;SDS011;5069;49.306;8.636;2022-12-10T06:39:22;27.30;;;17.00;;
10059;SDS011;5069;49.306;8.636;2022-12-10T06:42:24;25.30;;;16.40;;
10059;SDS011;5069;49.306;8.636;2022-12-10T06:45:25;28.37;;;16.67;;
10059;SDS011;5069;49.306;8.636;2022-12-10T06:48:27;26.73;;;16.80;;
10059;SDS011;5069;49.306;8.636;2022-12-10T06:51:28;27.30;;;17.27;;
10059;SDS011;5069;49.306;8.636;2022-12-10T06:54:30;29.53;;;18.27;;
10059;SDS011;5069;49.306;8.636;2022-12-10T06:57:31;27.23;;;16.93;;
10059;SDS011;5069;49.306;8.636;2022-12-10T07:00:33;26.07;;;17.07;;
10059;SDS011;5069;49.306;8.636;2022-12-10T07:03:34;25.70;;;16.37;;
10059;SDS011;5069;49.306;8.636;2022-12-10T07:06:36;24.87;;;15.43;;
10059;SDS011;5069;49.306;8.636;2022-12-10T07:09:37;24.13;;;15.93;;
10059;SDS011;5069;49.306;8.636;2022-12-10T07:12:39;26.53;;;17.10;;
10059;SDS011;5069;49.306;8.636;2022-12-10T07:15:40;23.93;;;16.33;;
10059;SDS011;5069;49.306;8.636;2022-12-10T07:18:42;27.93;;;17.30;;
10059;SDS011;5069;49.306;8.636;2022-12-10T07:21:51;25.33;;;17.27;;
10059;SDS011;5069;49.306;8.636;2022-12-10T07:24:53;27.07;;;16.53;;
10059;SDS011;5069;49.306;8.636;2022-12-10T07:27:54;28.37;;;17.50;;
10059;SDS011;5069;49.306;8.636;2022-12-10T07:31:02;26.40;;;16.83;;
10059;SDS011;5069;49.306;8.636;2022-12-10T07:34:04;27.23;;;17.33;;
10059;SDS011;5069;49.306;8.636;2022-12-10T07:37:05;30.77;;;18.23;;
10059;SDS011;5069;49.306;8.636;2022-12-10T07:40:08;29.07;;;18.07;;
10059;SDS011;5069;49.306;8.636;2022-12-10T07:43:10;28.70;;;18.27;;
10059;SDS011;5069;49.306;8.636;2022-12-10T07:46:13;27.33;;;17.20;;
10059;SDS011;5069;49.306;8.636;2022-12-10T07:49:17;27.03;;;17.70;;
10059;SDS011;5069;49.306;8.636;2022-12-10T07:52:19;27.00;;;16.93;;
10059;SDS011;5069;49.306;8.636;2022-12-10T07:55:20;26.93;;;15.90;;
10059;SDS011;5069;49.306;8.636;2022-12-10T07:58:22;27.63;;;17.73;;
10059;SDS011;5069;49.306;8.636;2022-12-10T08:01:24;29.07;;;17.70;;
10059;SDS011;5069;49.306;8.636;2022-12-10T08:04:30;24.37;;;16.67;;
10059;SDS011;5069;49.306;8.636;2022-12-10T08:07:32;28.00;;;16.83;;
10059;SDS011;5069;49.306;8.636;2022-12-10T08:10:34;25.70;;;17.07;;
10059;SDS011;5069;49.306;8.636;2022-12-10T08:13:37;25.30;;;16.13;;
10059;SDS011;5069;49.306;8.636;2022-12-10T08:16:38;25.97;;;17.03;;
10059;SDS011;5069;49.306;8.636;2022-12-10T08:19:40;25.10;;;16.93;;
10059;SDS011;5069;49.306;8.636;2022-12-10T08:22:41;25.43;;;16.17;;
10059;SDS011;5069;49.306;8.636;2022-12-10T08:25:43;27.47;;;16.47;;
10059;SDS011;5069;49.306;8.636;2022-12-10T08:28:45;24.47;;;16.10;;
10059;SDS011;5069;49.306;8.636;2022-12-10T08:31:49;24.00;;;16.00;;
10059;SDS011;5069;49.306;8.636;2022-12-10T08:34:50;28.17;;;17.00;;
10059;SDS011;5069;49.306;8.636;2022-12-10T08:37:52;26.10;;;17.40;;
10059;SDS011;5069;49.306;8.636;2022-12-10T08:40:53;24.37;;;15.90;;
10059;SDS011;5069;49.306;8.636;2022-12-10T08:43:54;26.30;;;16.60;;
10059;SDS011;5069;49.306;8.636;2022-12-10T08:46:56;26.20;;;16.80;;
10059;SDS011;5069;49.306;8.636;2022-12-10T08:49:57;22.07;;;15.40;;
10059;SDS011;5069;49.306;8.636;2022-12-10T08:52:59;24.60;;;15.43;;
10059;SDS011;5069;49.306;8.636;2022-12-10T08:56:01;25.23;;;16.43;;
10059;SDS011;5069;49.306;8.636;2022-12-10T08:59:03;30.57;;;16.10;;
10059;SDS011;5069;49.306;8.636;2022-12-10T09:02:04;24.43;;;15.30;;
10059;SDS011;5069;49.306;8.636;2022-12-10T09:05:06;22.87;;;15.70;;
10059;SDS011;5069;49.306;8.636;2022-12-10T09:08:08;26.73;;;16.00;;
10059;SDS011;5069;49.306;8.636;2022-12-10T09:11:12;24.80;;;15.77;;
10059;SDS011;5069;49.306;8.636;2022-12-10T09:14:24;23.07;;;15.70;;
10059;SDS011;5069;49.306;8.636;2022-12-10T09:17:26;24.77;;;15.07;;
10059;SDS011;5069;49.306;8.636;2022-12-10T09:20:27;26.97;;;16.90;;
10059;SDS011;5069;49.306;8.636;2022-12-10T09:23:29;24.33;;;15.53;;
10059;SDS011;5069;49.306;8.636;2022-12-10T09:26:30;26.17;;;16.20;;
10059;SDS011;5069;49.306;8.636;2022-12-10T09:29:32;25.07;;;16.17;;
10059;SDS011;5069;49.306;8.636;2022-12-10T09:32:33;26.23;;;15.83;;
10059;SDS011;5069;49.306;8.636;2022-12-10T09:35:38;25.90;;;16.80;;
10059;SDS011;5069;49.306;8.636;2022-12-10T09:38:42;24.83;;;15.87;;
10059;SDS011;5069;49.306;8.636;2022-12-10T09:41:49;23.53;;;15.23;;
10059;SDS011;5069;49.306;8.636;2022-12-10T09:48:34;24.17;;;15.83;;
10059;SDS011;5069;49.306;8.636;2022-12-10T09:51:50;24.90;;;16.63;;
10059;SDS011;5069;49.306;8.636;2022-12-10T09:55:00;25.23;;;15.23;;
10059;SDS011;5069;49.306;8.636;2022-12-10T09:58:08;25.80;;;16.73;;
10059;SDS011;5069;49.306;8.636;2022-12-10T10:01:30;25.27;;;15.90;;
10059;SDS011;5069;49.306;8.636;2022-12-10T10:04:34;25.17;;;15.87;;
10059;SDS011;5069;49.306;8.636;2022-12-10T10:07:43;25.93;;;16.37;;
10059;SDS011;5069;49.306;8.636;2022-12-10T10:10:49;24.73;;;16.17;;
10059;SDS011;5069;49.306;8.636;2022-12-10T10:14:01;28.00;;;16.50;;
10059;SDS011;5069;49.306;8.636;2022-12-10T10:17:14;24.50;;;15.73;;
10059;SDS011;5069;49.306;8.636;2022-12-10T10:20:21;22.87;;;14.80;;
10059;SDS011;5069;49.306;8.636;2022-12-10T10:23:23;24.83;;;16.37;;
10059;SDS011;5069;49.306;8.636;2022-12-10T10:26:25;24.93;;;16.47;;
10059;SDS011;5069;49.306;8.636;2022-12-10T10:29:27;23.20;;;15.00;;
10059;SDS011;5069;49.306;8.636;2022-12-10T10:35:48;25.83;;;16.10;;
10059;SDS011;5069;49.306;8.636;2022-12-10T10:39:07;26.13;;;16.10;;
10059;SDS011;5069;49.306;8.636;2022-12-10T10:42:10;27.40;;;15.93;;
10059;SDS011;5069;49.306;8.636;2022-12-10T10:45:31;24.03;;;15.87;;
10059;SDS011;5069;49.306;8.636;2022-12-10T10:48:39;23.43;;;15.40;;
10059;SDS011;5069;49.306;8.636;2022-12-10T10:51:42;22.60;;;15.17;;
10059;SDS011;5069;49.306;8.636;2022-12-10T10:54:46;24.20;;;16.10;;
10059;SDS011;5069;49.306;8.636;2022-12-10T10:57:48;22.77;;;15.07;;
10059;SDS011;5069;49.306;8.636;2022-12-10T11:00:57;22.10;;;15.10;;
10059;SDS011;5069;49.306;8.636;2022-12-10T11:04:04;23.90;;;15.10;;
10059;SDS011;5069;49.306;8.636;2022-12-10T11:07:14;20.43;;;14.03;;
10059;SDS011;5069;49.306;8.636;2022-12-10T11:10:33;22.33;;;15.23;;
10059;SDS011;5069;49.306;8.636;2022-12-10T11:13:35;21.03;;;14.33;;
10059;SDS011;5069;49.306;8.636;2022-12-10T11:16:37;24.20;;;15.07;;
10059;SDS011;5069;49.306;8.636;2022-12-10T11:19:44;20.77;;;14.63;;
10059;SDS011;5069;49.306;8.636;2022-12-10T11:23:02;20.40;;;14.30;;
10059;SDS011;5069;49.306;8.636;2022-12-10T11:26:21;20.67;;;13.80;;
10059;SDS011;5069;49.306;8.636;2022-12-10T11:29:54;21.60;;;14.70;;
10059;SDS011;5069;49.306;8.636;2022-12-10T11:33:49;21.60;;;13.77;;
10059;SDS011;5069;49.306;8.636;2022-12-10T11:36:42;19.23;;;13.53;;
10059;SDS011;5069;49.306;8.636;2022-12-10T11:50:42;18.47;;;13.00;;
10059;SDS011;5069;49.306;8.636;2022-12-10T11:57:43;21.97;;;14.00;;
10059;SDS011;5069;49.306;8.636;2022-12-10T12:04:28;19.60;;;13.77;;
10059;SDS011;5069;49.306;8.636;2022-12-10T12:11:25;17.33;;;12.10;;
10059;SDS011;5069;49.306;8.636;2022-12-10T12:14:46;18.40;;;12.60;;
10059;SDS011;5069;49.306;8.636;2022-12-10T12:17:55;18.23;;;13.00;;
10059;SDS011;5069;49.306;8.636;2022-12-10T12:21:04;16.93;;;12.43;;
10059;SDS011;5069;49.306;8.636;2022-12-10T12:31:35;19.87;;;12.90;;
10059;SDS011;5069;49.306;8.636;2022-12-10T12:34:59;18.23;;;12.30;;
10059;SDS011;5069;49.306;8.636;2022-12-10T12:38:06;17.90;;;12.10;;
10059;SDS011;5069;49.306;8.636;2022-12-10T12:41:30;17.37;;;12.43;;
10059;SDS011;5069;49.306;8.636;2022-12-10T12:55:26;15.43;;;11.47;;
10059;SDS011;5069;49.306;8.636;2022-12-10T13:05:45;14.67;;;10.43;;
10059;SDS011;5069;49.306;8.636;2022-12-10T13:09:33;16.63;;;11.50;;
10059;SDS011;5069;49.306;8.636;2022-12-10T13:15:20;15.80;;;11.10;;
10059;SDS011;5069;49.306;8.636;2022-12-10T13:18:24;14.30;;;10.27;;
10059;SDS011;5069;49.306;8.636;2022-12-10T13:21:37;15.97;;;10.53;;
10059;SDS011;5069;49.306;8.636;2022-12-10T13:25:16;15.97;;;10.57;;
10059;SDS011;5069;49.306;8.636;2022-12-10T13:28:26;14.33;;;10.43;;
10059;SDS011;5069;49.306;8.636;2022-12-10T13:31:37;14.70;;;10.77;;
10059;SDS011;5069;49.306;8.636;2022-12-10T13:34:39;14.67;;;10.43;;
10059;SDS011;5069;49.306;8.636;2022-12-10T13:40:58;14.47;;;10.40;;
10059;SDS011;5069;49.306;8.636;2022-12-10T13:45:05;15.57;;;10.70;;
10059;SDS011;5069;49.306;8.636;2022-12-10T13:48:34;14.57;;;11.00;;
10059;SDS011;5069;49.306;8.636;2022-12-10T13:51:29;14.77;;;10.80;;
10059;SDS011;5069;49.306;8.636;2022-12-10T13:58:35;14.30;;;10.20;;
10059;SDS011;5069;49.306;8.636;2022-12-10T14:01:50;13.43;;;9.50;;
10059;SDS011;5069;49.306;8.636;2022-12-10T14:08:44;16.13;;;11.40;;
10059;SDS011;5069;49.306;8.636;2022-12-10T14:14:59;13.83;;;10.17;;
10059;SDS011;5069;49.306;8.636;2022-12-10T14:18:11;15.57;;;11.00;;
10059;SDS011;5069;49.306;8.636;2022-12-10T14:21:14;12.70;;;9.70;;
10059;SDS011;5069;49.306;8.636;2022-12-10T14:24:27;15.90;;;11.93;;
10059;SDS011;5069;49.306;8.636;2022-12-10T14:27:30;14.67;;;10.60;;
10059;SDS011;5069;49.306;8.636;2022-12-10T14:30:32;15.87;;;10.53;;
10059;SDS011;5069;49.306;8.636;2022-12-10T14:33:33;15.20;;;10.73;;
10059;SDS011;5069;49.306;8.636;2022-12-10T14:36:38;14.43;;;10.53;;
10059;SDS011;5069;49.306;8.636;2022-12-10T14:39:45;15.70;;;10.40;;
10059;SDS011;5069;49.306;8.636;2022-12-10T14:42:47;13.47;;;10.20;;
10059;SDS011;5069;49.306;8.636;2022-12-10T14:45:56;14.80;;;10.47;;
10059;SDS011;5069;49.306;8.636;2022-12-10T14:49:00;14.10;;;10.37;;
10059;SDS011;5069;49.306;8.636;2022-12-10T14:52:01;14.77;;;10.53;;
10059;SDS011;5069;49.306;8.636;2022-12-10T14:55:04;14.10;;;10.40;;
10059;SDS011;5069;49.306;8.636;2022-12-10T14:58:06;14.57;;;10.53;;
10059;SDS011;5069;49.306;8.636;2022-12-10T15:01:16;14.07;;;10.53;;
10059;SDS011;5069;49.306;8.636;2022-12-10T15:04:39;14.10;;;10.40;;
10059;SDS011;5069;49.306;8.636;2022-12-10T15:08:18;16.73;;;11.80;;
10059;SDS011;5069;49.306;8.636;2022-12-10T15:11:17;14.60;;;10.70;;
10059;SDS011;5069;49.306;8.636;2022-12-10T15:14:21;14.83;;;10.53;;
10059;SDS011;5069;49.306;8.636;2022-12-10T15:17:38;16.07;;;11.20;;
10059;SDS011;5069;49.306;8.636;2022-12-10T15:23:52;14.83;;;11.23;;
10059;SDS011;5069;49.306;8.636;2022-12-10T15:27:18;17.50;;;11.00;;
10059;SDS011;5069;49.306;8.636;2022-12-10T15:30:22;16.50;;;11.30;;
10059;SDS011;5069;49.306;8.636;2022-12-10T15:33:30;44.30;;;21.57;;
10059;SDS011;5069;49.306;8.636;2022-12-10T15:36:37;17.53;;;12.43;;
10059;SDS011;5069;49.306;8.636;2022-12-10T15:39:49;16.33;;;10.73;;
10059;SDS011;5069;49.306;8.636;2022-12-10T15:43:10;16.63;;;11.43;;
10059;SDS011;5069;49.306;8.636;2022-12-10T15:46:17;16.30;;;11.67;;
10059;SDS011;5069;49.306;8.636;2022-12-10T15:49:19;18.63;;;11.43;;
10059;SDS011;5069;49.306;8.636;2022-12-10T15:52:21;16.30;;;10.80;;
10059;SDS011;5069;49.306;8.636;2022-12-10T15:55:25;15.67;;;11.47;;
10059;SDS011;5069;49.306;8.636;2022-12-10T15:58:27;16.70;;;11.70;;
10059;SDS011;5069;49.306;8.636;2022-12-10T16:01:29;17.63;;;11.70;;
10059;SDS011;5069;49.306;8.636;2022-12-10T16:04:30;17.17;;;12.33;;
10059;SDS011;5069;49.306;8.636;2022-12-10T16:07:32;16.10;;;11.70;;
10059;SDS011;5069;49.306;8.636;2022-12-10T16:10:33;15.60;;;11.90;;
10059;SDS011;5069;49.306;8.636;2022-12-10T16:13:35;17.43;;;11.70;;
10059;SDS011;5069;49.306;8.636;2022-12-10T16:16:41;17.53;;;12.23;;
10059;SDS011;5069;49.306;8.636;2022-12-10T16:19:42;18.77;;;12.80;;
10059;SDS011;5069;49.306;8.636;2022-12-10T16:22:44;17.67;;;12.57;;
10059;SDS011;5069;49.306;8.636;2022-12-10T16:25:46;16.77;;;12.73;;
10059;SDS011;5069;49.306;8.636;2022-12-10T16:28:48;21.43;;;13.83;;
10059;SDS011;5069;49.306;8.636;2022-12-10T16:31:50;17.47;;;12.50;;
10059;SDS011;5069;49.306;8.636;2022-12-10T16:34:52;16.53;;;11.80;;
10059;SDS011;5069;49.306;8.636;2022-12-10T16:37:54;19.00;;;12.70;;
10059;SDS011;5069;49.306;8.636;2022-12-10T16:41:00;19.50;;;12.17;;
10059;SDS011;5069;49.306;8.636;2022-12-10T16:44:03;16.60;;;12.23;;
10059;SDS011;5069;49.306;8.636;2022-12-10T16:47:10;18.07;;;12.67;;
10059;SDS011;5069;49.306;8.636;2022-12-10T16:50:13;15.67;;;11.93;;
10059;SDS011;5069;49.306;8.636;2022-12-10T16:56:19;21.33;;;13.07;;
10059;SDS011;5069;49.306;8.636;2022-12-10T16:59:20;27.03;;;18.40;;
10059;SDS011;5069;49.306;8.636;2022-12-10T17:02:22;29.17;;;18.67;;
10059;SDS011;5069;49.306;8.636;2022-12-10T17:05:31;30.93;;;21.07;;
10059;SDS011;5069;49.306;8.636;2022-12-10T17:08:36;29.40;;;18.93;;
10059;SDS011;5069;49.306;8.636;2022-12-10T17:11:40;29.87;;;17.70;;
10059;SDS011;5069;49.306;8.636;2022-12-10T17:14:46;22.73;;;14.87;;
10059;SDS011;5069;49.306;8.636;2022-12-10T17:17:47;32.57;;;19.40;;
10059;SDS011;5069;49.306;8.636;2022-12-10T17:20:49;31.23;;;19.83;;
10059;SDS011;5069;49.306;8.636;2022-12-10T17:23:51;26.23;;;17.93;;
10059;SDS011;5069;49.306;8.636;2022-12-10T17:26:53;21.37;;;14.97;;
10059;SDS011;5069;49.306;8.636;2022-12-10T17:29:59;25.47;;;17.03;;
10059;SDS011;5069;49.306;8.636;2022-12-10T17:33:00;25.50;;;16.37;;
10059;SDS011;5069;49.306;8.636;2022-12-10T17:36:02;37.70;;;22.80;;
10059;SDS011;5069;49.306;8.636;2022-12-10T17:39:07;44.03;;;27.90;;
10059;SDS011;5069;49.306;8.636;2022-12-10T17:42:16;31.43;;;19.90;;
10059;SDS011;5069;49.306;8.636;2022-12-10T17:45:18;24.77;;;17.10;;
10059;SDS011;5069;49.306;8.636;2022-12-10T17:48:22;21.17;;;14.57;;
10059;SDS011;5069;49.306;8.636;2022-12-10T17:51:25;22.37;;;13.73;;
10059;SDS011;5069;49.306;8.636;2022-12-10T17:54:27;17.23;;;13.03;;
10059;SDS011;5069;49.306;8.636;2022-12-10T17:57:29;19.13;;;13.97;;
10059;SDS011;5069;49.306;8.636;2022-12-10T18:00:31;24.47;;;15.77;;
10059;SDS011;5069;49.306;8.636;2022-12-10T18:03:36;29.47;;;19.07;;
10059;SDS011;5069;49.306;8.636;2022-12-10T18:06:38;26.57;;;18.03;;
10059;SDS011;5069;49.306;8.636;2022-12-10T18:09:40;19.83;;;14.40;;
10059;SDS011;5069;49.306;8.636;2022-12-10T18:12:42;19.90;;;14.17;;
10059;SDS011;5069;49.306;8.636;2022-12-10T18:15:43;17.87;;;13.20;;
10059;SDS011;5069;49.306;8.636;2022-12-10T18:18:45;21.63;;;14.13;;
10059;SDS011;5069;49.306;8.636;2022-12-10T18:21:48;26.60;;;17.67;;
10059;SDS011;5069;49.306;8.636;2022-12-10T18:24:55;30.60;;;18.27;;
10059;SDS011;5069;49.306;8.636;2022-12-10T18:27:59;28.30;;;17.77;;
10059;SDS011;5069;49.306;8.636;2022-12-10T18:31:08;28.80;;;18.10;;
10059;SDS011;5069;49.306;8.636;2022-12-10T18:34:14;29.63;;;17.90;;
10059;SDS011;5069;49.306;8.636;2022-12-10T18:37:17;25.57;;;16.37;;
10059;SDS011;5069;49.306;8.636;2022-12-10T18:40:19;30.37;;;19.73;;
10059;SDS011;5069;49.306;8.636;2022-12-10T18:43:24;30.10;;;17.93;;
10059;SDS011;5069;49.306;8.636;2022-12-10T18:46:26;25.50;;;16.23;;
10059;SDS011;5069;49.306;8.636;2022-12-10T18:49:29;25.60;;;16.57;;
10059;SDS011;5069;49.306;8.636;2022-12-10T18:52:32;19.63;;;13.63;;
10059;SDS011;5069;49.306;8.636;2022-12-10T18:55:34;20.20;;;14.20;;
10059;SDS011;5069;49.306;8.636;2022-12-10T18:58:35;22.67;;;14.47;;
10059;SDS011;5069;49.306;8.636;2022-12-10T19:01:37;21.37;;;14.17;;
10059;SDS011;5069;49.306;8.636;2022-12-10T19:04:38;19.00;;;12.93;;
10059;SDS011;5069;49.306;8.636;2022-12-10T19:07:40;21.70;;;13.23;;
10059;SDS011;5069;49.306;8.636;2022-12-10T19:10:41;23.13;;;14.70;;
10059;SDS011;5069;49.306;8.636;2022-12-10T19:13:43;19.27;;;13.50;;
10059;SDS011;5069;49.306;8.636;2022-12-10T19:16:46;25.63;;;13.73;;
10059;SDS011;5069;49.306;8.636;2022-12-10T19:19:47;21.20;;;14.47;;
10059;SDS011;5069;49.306;8.636;2022-12-10T19:22:49;22.60;;;14.27;;
10059;SDS011;5069;49.306;8.636;2022-12-10T19:25:51;22.80;;;14.27;;
10059;SDS011;5069;49.306;8.636;2022-12-10T19:28:53;22.90;;;14.53;;
10059;SDS011;5069;49.306;8.636;2022-12-10T19:31:55;24.27;;;14.87;;
10059;SDS011;5069;49.306;8.636;2022-12-10T19:34:56;26.97;;;17.50;;
10059;SDS011;5069;49.306;8.636;2022-12-10T19:37:58;24.23;;;16.03;;
10059;SDS011;5069;49.306;8.636;2022-12-10T19:40:59;22.03;;;14.93;;
10059;SDS011;5069;49.306;8.636;2022-12-10T19:44:01;21.27;;;14.17;;
10059;SDS011;5069;49.306;8.636;2022-12-10T19:47:02;26.20;;;15.67;;
10059;SDS011;5069;49.306;8.636;2022-12-10T19:50:04;24.23;;;16.67;;
10059;SDS011;5069;49.306;8.636;2022-12-10T19:53:05;19.87;;;13.07;;